PWSweather.com
Personal Weather Stations
Station Observations
KMIEASTT1
Tawas Bay, East Tawas, MI 48730

Tawas BayEast Tawas, MI 48730

Lat: 44.28, Lon: -83.48

Elevation: 600

Station Type: Davis VantagePro

http://www.tawasbayweather.com

High Low Average
Temperature 41.5°F5.3°C 32.9°F0.5°C 35.8°F2.1°C
Dew Point 35.8°F2.1°C 30.8°F-0.7°C 32.8°F0.4°C
Winds 6.0 mph 9.7 kmh Calm Calm 3.0 mph S4.8 kmh S
Wind Gusts 11.0 mph17.7 kmh 1.0 mph1.6 kmh 4.0 mph6.4 kmh
Humidity 94% 79% 89%
Pressure 29.86 in1011.2 mb 29.65 in1004.1 mb -
Precipitation 0.00 in0.0 mm - -
Hour Temp Dew Point Humidity Winds Wind Gusts Pressure Precip Precip Rate Daily Precip Total
12:01 AM 34.9°F1.6°C 31.7°F-0.2°C 88% 4.0 mph SW6.4 kmh SW 7.0 mph11.3 kmh 29.86 in1011.2 mb 0.00 in0.0 mm 0.00 in/hr0.0 mm/hr 0.00 in0.0 mm
12:15 AM 34.4°F1.3°C 31.8°F-0.1°C 90% 3.0 mph SSW4.8 kmh SSW 5.0 mph8.0 kmh 29.85 in1010.8 mb 0.00 in0.0 mm 0.00 in/hr0.0 mm/hr 0.00 in0.0 mm
12:30 AM 34.2°F1.2°C 31.9°F-0.1°C 91% 2.0 mph SSW3.2 kmh SSW 3.0 mph4.8 kmh 29.85 in1010.8 mb 0.00 in0.0 mm 0.00 in/hr0.0 mm/hr 0.00 in0.0 mm
12:45 AM 34.1°F1.2°C 32.0°F0.0°C 92% 2.0 mph S3.2 kmh S 3.0 mph4.8 kmh 29.85 in1010.8 mb 0.00 in0.0 mm 0.00 in/hr0.0 mm/hr 0.00 in0.0 mm
01:01 AM 33.7°F0.9°C 31.4°F-0.3°C 91% 3.0 mph S4.8 kmh S 4.0 mph6.4 kmh 29.84 in1010.5 mb 0.00 in0.0 mm 0.00 in/hr0.0 mm/hr 0.00 in0.0 mm
01:15 AM 33.9°F1.1°C 31.6°F-0.2°C 91% 3.0 mph S4.8 kmh S 3.0 mph4.8 kmh 29.84 in1010.5 mb 0.00 in0.0 mm 0.00 in/hr0.0 mm/hr 0.00 in0.0 mm
01:30 AM 33.9°F1.1°C 31.3°F-0.4°C 90% 4.0 mph SSW6.4 kmh SSW 5.0 mph8.0 kmh 29.83 in1010.2 mb 0.00 in0.0 mm 0.00 in/hr0.0 mm/hr 0.00 in0.0 mm
01:45 AM 34.1°F1.2°C 31.8°F-0.1°C 91% 4.0 mph S6.4 kmh S 6.0 mph9.7 kmh 29.83 in1010.2 mb 0.00 in0.0 mm 0.00 in/hr0.0 mm/hr 0.00 in0.0 mm
02:01 AM 34.4°F1.3°C 31.8°F-0.1°C 90% 6.0 mph SSW9.7 kmh SSW 11.0 mph17.7 kmh 29.84 in1010.5 mb 0.00 in0.0 mm 0.00 in/hr0.0 mm/hr 0.00 in0.0 mm
02:15 AM 34.4°F1.3°C 31.8°F-0.1°C 90% 6.0 mph SW9.7 kmh SW 9.0 mph14.5 kmh 29.84 in1010.5 mb 0.00 in0.0 mm 0.00 in/hr0.0 mm/hr 0.00 in0.0 mm
02:30 AM 34.3°F1.3°C 32.0°F0.0°C 91% 6.0 mph SSW9.7 kmh SSW 7.0 mph11.3 kmh 29.84 in1010.5 mb 0.00 in0.0 mm 0.00 in/hr0.0 mm/hr 0.00 in0.0 mm
02:45 AM 34.0°F1.1°C 31.7°F-0.2°C 91% 4.0 mph S6.4 kmh S 6.0 mph9.7 kmh 29.84 in1010.5 mb 0.00 in0.0 mm 0.00 in/hr0.0 mm/hr 0.00 in0.0 mm
03:01 AM 34.0°F1.1°C 31.9°F-0.1°C 92% 5.0 mph S8.0 kmh S 6.0 mph9.7 kmh 29.84 in1010.5 mb 0.00 in0.0 mm 0.00 in/hr0.0 mm/hr 0.00 in0.0 mm
03:15 AM 33.9°F1.1°C 31.8°F-0.1°C 92% 5.0 mph SSW8.0 kmh SSW 5.0 mph8.0 kmh 29.84 in1010.5 mb 0.00 in0.0 mm 0.00 in/hr0.0 mm/hr 0.00 in0.0 mm
03:30 AM 33.7°F0.9°C 31.4°F-0.3°C 91% 3.0 mph SSW4.8 kmh SSW 5.0 mph8.0 kmh 29.84 in1010.5 mb 0.00 in0.0 mm 0.00 in/hr0.0 mm/hr 0.00 in0.0 mm
03:45 AM 33.6°F0.9°C 31.3°F-0.4°C 91% 3.0 mph SSW4.8 kmh SSW 5.0 mph8.0 kmh 29.84 in1010.5 mb 0.00 in0.0 mm 0.00 in/hr0.0 mm/hr 0.00 in0.0 mm
04:00 AM 33.8°F1.0°C 31.5°F-0.3°C 91% 2.0 mph S3.2 kmh S 3.0 mph4.8 kmh 29.84 in1010.5 mb 0.00 in0.0 mm 0.00 in/hr0.0 mm/hr 0.00 in0.0 mm
04:15 AM 33.9°F1.1°C 31.6°F-0.2°C 91% 2.0 mph S3.2 kmh S 4.0 mph6.4 kmh 29.83 in1010.2 mb 0.00 in0.0 mm 0.00 in/hr0.0 mm/hr 0.00 in0.0 mm
04:30 AM 33.7°F0.9°C 31.4°F-0.3°C 91% 3.0 mph S4.8 kmh S 4.0 mph6.4 kmh 29.83 in1010.2 mb 0.00 in0.0 mm 0.00 in/hr0.0 mm/hr 0.00 in0.0 mm
04:45 AM 33.6°F0.9°C 31.3°F-0.4°C 91% 5.0 mph SSW8.0 kmh SSW 7.0 mph11.3 kmh 29.83 in1010.2 mb 0.00 in0.0 mm 0.00 in/hr0.0 mm/hr 0.00 in0.0 mm
05:00 AM 33.5°F0.8°C 31.2°F-0.4°C 91% 2.0 mph SSW3.2 kmh SSW 5.0 mph8.0 kmh 29.83 in1010.2 mb 0.00 in0.0 mm 0.00 in/hr0.0 mm/hr 0.00 in0.0 mm
05:15 AM 33.4°F0.8°C 31.1°F-0.5°C 91% 4.0 mph SSW6.4 kmh SSW 6.0 mph9.7 kmh 29.82 in1009.8 mb 0.00 in0.0 mm 0.00 in/hr0.0 mm/hr 0.00 in0.0 mm
05:30 AM 33.4°F0.8°C 31.3°F-0.4°C 92% 5.0 mph SSW8.0 kmh SSW 5.0 mph8.0 kmh 29.82 in1009.8 mb 0.00 in0.0 mm 0.00 in/hr0.0 mm/hr 0.00 in0.0 mm
05:45 AM 33.3°F0.7°C 31.2°F-0.4°C 92% 2.0 mph SW3.2 kmh SW 4.0 mph6.4 kmh 29.82 in1009.8 mb 0.00 in0.0 mm 0.00 in/hr0.0 mm/hr 0.00 in0.0 mm
06:00 AM 32.9°F0.5°C 30.8°F-0.7°C 92% 2.0 mph SW3.2 kmh SW 3.0 mph4.8 kmh 29.82 in1009.8 mb 0.00 in0.0 mm 0.00 in/hr0.0 mm/hr 0.00 in0.0 mm
06:15 AM 33.0°F0.6°C 31.2°F-0.4°C 93% 1.0 mph SW1.6 kmh SW 2.0 mph3.2 kmh 29.82 in1009.8 mb 0.00 in0.0 mm 0.00 in/hr0.0 mm/hr 0.00 in0.0 mm
06:30 AM 33.6°F0.9°C 31.5°F-0.3°C 92% Calm Calm 1.0 mph1.6 kmh 29.81 in1009.5 mb 0.00 in0.0 mm 0.00 in/hr0.0 mm/hr 0.00 in0.0 mm
06:45 AM 33.5°F0.8°C 31.2°F-0.4°C 91% 1.0 mph SW1.6 kmh SW 1.0 mph1.6 kmh 29.81 in1009.5 mb 0.00 in0.0 mm 0.00 in/hr0.0 mm/hr 0.00 in0.0 mm
07:00 AM 33.2°F0.7°C 31.4°F-0.3°C 93% 2.0 mph SSE3.2 kmh SSE 2.0 mph3.2 kmh 29.80 in1009.1 mb 0.00 in0.0 mm 0.00 in/hr0.0 mm/hr 0.00 in0.0 mm
07:15 AM 33.1°F0.6°C 31.0°F-0.6°C 92% 2.0 mph S3.2 kmh S 4.0 mph6.4 kmh 29.80 in1009.1 mb 0.00 in0.0 mm 0.00 in/hr0.0 mm/hr 0.00 in0.0 mm
07:30 AM 33.0°F0.6°C 31.2°F-0.4°C 93% 2.0 mph S3.2 kmh S 2.0 mph3.2 kmh 29.78 in1008.5 mb 0.00 in0.0 mm 0.00 in/hr0.0 mm/hr 0.00 in0.0 mm
07:45 AM 33.0°F0.6°C 31.5°F-0.3°C 94% 3.0 mph S4.8 kmh S 6.0 mph9.7 kmh 29.79 in1008.8 mb 0.00 in0.0 mm 0.00 in/hr0.0 mm/hr 0.00 in0.0 mm
08:01 AM 33.6°F0.9°C 32.1°F0.1°C 94% 2.0 mph S3.2 kmh S 6.0 mph9.7 kmh 29.79 in1008.8 mb 0.00 in0.0 mm 0.00 in/hr0.0 mm/hr 0.00 in0.0 mm
08:15 AM 33.7°F0.9°C 31.9°F-0.1°C 93% 4.0 mph S6.4 kmh S 4.0 mph6.4 kmh 29.80 in1009.1 mb 0.00 in0.0 mm 0.00 in/hr0.0 mm/hr 0.00 in0.0 mm
08:30 AM 33.9°F1.1°C 32.1°F0.1°C 93% 6.0 mph S9.7 kmh S 6.0 mph9.7 kmh 29.80 in1009.1 mb 0.00 in0.0 mm 0.00 in/hr0.0 mm/hr 0.00 in0.0 mm
09:01 AM 34.5°F1.4°C 32.4°F0.2°C 92% 5.0 mph SSW8.0 kmh SSW 6.0 mph9.7 kmh 29.80 in1009.1 mb 0.00 in0.0 mm 0.00 in/hr0.0 mm/hr 0.00 in0.0 mm
09:15 AM 34.1°F1.2°C 32.0°F0.0°C 92% 4.0 mph SSW6.4 kmh SSW 5.0 mph8.0 kmh 29.80 in1009.1 mb 0.00 in0.0 mm 0.00 in/hr0.0 mm/hr 0.00 in0.0 mm
09:31 AM 33.9°F1.1°C 32.1°F0.1°C 93% 3.0 mph SW4.8 kmh SW 4.0 mph6.4 kmh 29.81 in1009.5 mb 0.00 in0.0 mm 0.00 in/hr0.0 mm/hr 0.00 in0.0 mm
09:45 AM 34.0°F1.1°C 31.9°F-0.1°C 92% 2.0 mph SW3.2 kmh SW 4.0 mph6.4 kmh 29.81 in1009.5 mb 0.00 in0.0 mm 0.00 in/hr0.0 mm/hr 0.00 in0.0 mm
10:01 AM 34.3°F1.3°C 32.2°F0.1°C 92% 2.0 mph SW3.2 kmh SW 4.0 mph6.4 kmh 29.81 in1009.5 mb 0.00 in0.0 mm 0.00 in/hr0.0 mm/hr 0.00 in0.0 mm
10:15 AM 34.4°F1.3°C 32.3°F0.2°C 92% 2.0 mph SW3.2 kmh SW 3.0 mph4.8 kmh 29.80 in1009.1 mb 0.00 in0.0 mm 0.00 in/hr0.0 mm/hr 0.00 in0.0 mm
10:30 AM 35.5°F1.9°C 33.1°F0.6°C 91% Calm Calm 2.0 mph3.2 kmh 29.79 in1008.8 mb 0.00 in0.0 mm 0.00 in/hr0.0 mm/hr 0.00 in0.0 mm
10:45 AM 36.9°F2.7°C 33.7°F0.9°C 88% 2.0 mph SW3.2 kmh SW 3.0 mph4.8 kmh 29.79 in1008.8 mb 0.00 in0.0 mm 0.00 in/hr0.0 mm/hr 0.00 in0.0 mm
11:00 AM 36.5°F2.5°C 33.6°F0.9°C 89% 2.0 mph S3.2 kmh S 4.0 mph6.4 kmh 29.78 in1008.5 mb 0.00 in0.0 mm 0.00 in/hr0.0 mm/hr 0.00 in0.0 mm
11:15 AM 36.2°F2.3°C 33.6°F0.9°C 90% 3.0 mph S4.8 kmh S 4.0 mph6.4 kmh 29.77 in1008.1 mb 0.00 in0.0 mm 0.00 in/hr0.0 mm/hr 0.00 in0.0 mm
11:45 AM 36.2°F2.3°C 33.6°F0.9°C 90% 3.0 mph S4.8 kmh S 5.0 mph8.0 kmh 29.76 in1007.8 mb 0.00 in0.0 mm 0.00 in/hr0.0 mm/hr 0.00 in0.0 mm
12:01 PM 36.0°F2.2°C 33.4°F0.8°C 90% 4.0 mph S6.4 kmh S 5.0 mph8.0 kmh 29.75 in1007.5 mb 0.00 in0.0 mm 0.00 in/hr0.0 mm/hr 0.00 in0.0 mm
12:15 PM 36.3°F2.4°C 33.7°F0.9°C 90% 2.0 mph SSE3.2 kmh SSE 3.0 mph4.8 kmh 29.74 in1007.1 mb 0.00 in0.0 mm 0.00 in/hr0.0 mm/hr 0.00 in0.0 mm
12:30 PM 36.7°F2.6°C 33.8°F1.0°C 89% 3.0 mph SSE4.8 kmh SSE 5.0 mph8.0 kmh 29.73 in1006.8 mb 0.00 in0.0 mm 0.00 in/hr0.0 mm/hr 0.00 in0.0 mm
12:45 PM 36.6°F2.6°C 33.7°F0.9°C 89% 5.0 mph SSE8.0 kmh SSE 6.0 mph9.7 kmh 29.73 in1006.8 mb 0.00 in0.0 mm 0.00 in/hr0.0 mm/hr 0.00 in0.0 mm
01:01 PM 37.0°F2.8°C 34.1°F1.2°C 89% 4.0 mph SSE6.4 kmh SSE 5.0 mph8.0 kmh 29.72 in1006.4 mb 0.00 in0.0 mm 0.00 in/hr0.0 mm/hr 0.00 in0.0 mm
01:15 PM 37.3°F2.9°C 34.1°F1.2°C 88% 4.0 mph SSE6.4 kmh SSE 6.0 mph9.7 kmh 29.72 in1006.4 mb 0.00 in0.0 mm 0.00 in/hr0.0 mm/hr 0.00 in0.0 mm
01:31 PM 36.9°F2.7°C 33.7°F0.9°C 88% 6.0 mph SSE9.7 kmh SSE 9.0 mph14.5 kmh 29.72 in1006.4 mb 0.00 in0.0 mm 0.00 in/hr0.0 mm/hr 0.00 in0.0 mm
01:45 PM 37.0°F2.8°C 33.8°F1.0°C 88% 5.0 mph SSE8.0 kmh SSE 7.0 mph11.3 kmh 29.71 in1006.1 mb 0.00 in0.0 mm 0.00 in/hr0.0 mm/hr 0.00 in0.0 mm
02:01 PM 37.7°F3.2°C 34.2°F1.2°C 87% 3.0 mph SE4.8 kmh SE 4.0 mph6.4 kmh 29.70 in1005.8 mb 0.00 in0.0 mm 0.00 in/hr0.0 mm/hr 0.00 in0.0 mm
02:15 PM 37.7°F3.2°C 34.5°F1.4°C 88% 2.0 mph E3.2 kmh E 5.0 mph8.0 kmh 29.70 in1005.8 mb 0.00 in0.0 mm 0.00 in/hr0.0 mm/hr 0.00 in0.0 mm
02:30 PM 38.6°F3.7°C 34.8°F1.6°C 86% 1.0 mph SE1.6 kmh SE 4.0 mph6.4 kmh 29.69 in1005.4 mb 0.00 in0.0 mm 0.00 in/hr0.0 mm/hr 0.00 in0.0 mm
02:45 PM 39.4°F4.1°C 35.0°F1.7°C 84% 3.0 mph E4.8 kmh E 3.0 mph4.8 kmh 29.69 in1005.4 mb 0.00 in0.0 mm 0.00 in/hr0.0 mm/hr 0.00 in0.0 mm
03:01 PM 40.3°F4.6°C 35.3°F1.8°C 82% 5.0 mph E8.0 kmh E 6.0 mph9.7 kmh 29.68 in1005.1 mb 0.00 in0.0 mm 0.00 in/hr0.0 mm/hr 0.00 in0.0 mm
03:15 PM 40.7°F4.8°C 35.3°F1.8°C 81% 5.0 mph E8.0 kmh E 7.0 mph11.3 kmh 29.68 in1005.1 mb 0.00 in0.0 mm 0.00 in/hr0.0 mm/hr 0.00 in0.0 mm
03:45 PM 41.1°F5.1°C 35.7°F2.1°C 81% 1.0 mph ESE1.6 kmh ESE 2.0 mph3.2 kmh 29.68 in1005.1 mb 0.00 in0.0 mm 0.00 in/hr0.0 mm/hr 0.00 in0.0 mm
04:01 PM 41.5°F5.3°C 35.8°F2.1°C 80% 1.0 mph ESE1.6 kmh ESE 2.0 mph3.2 kmh 29.68 in1005.1 mb 0.00 in0.0 mm 0.00 in/hr0.0 mm/hr 0.00 in0.0 mm
04:15 PM 41.1°F5.1°C 35.4°F1.9°C 80% 1.0 mph E1.6 kmh E 3.0 mph4.8 kmh 29.68 in1005.1 mb 0.00 in0.0 mm 0.00 in/hr0.0 mm/hr 0.00 in0.0 mm
04:30 PM 41.2°F5.1°C 35.5°F1.9°C 80% 1.0 mph E1.6 kmh E 2.0 mph3.2 kmh 29.68 in1005.1 mb 0.00 in0.0 mm 0.00 in/hr0.0 mm/hr 0.00 in0.0 mm
04:45 PM 41.1°F5.1°C 35.7°F2.1°C 81% Calm Calm 1.0 mph1.6 kmh 29.68 in1005.1 mb 0.00 in0.0 mm 0.00 in/hr0.0 mm/hr 0.00 in0.0 mm
05:01 PM 41.4°F5.2°C 35.7°F2.1°C 80% 1.0 mph E1.6 kmh E 2.0 mph3.2 kmh 29.67 in1004.7 mb 0.00 in0.0 mm 0.00 in/hr0.0 mm/hr 0.00 in0.0 mm
05:15 PM 41.1°F5.1°C 35.1°F1.7°C 79% 1.0 mph E1.6 kmh E 1.0 mph1.6 kmh 29.67 in1004.7 mb 0.00 in0.0 mm 0.00 in/hr0.0 mm/hr 0.00 in0.0 mm
05:30 PM 40.5°F4.7°C 34.8°F1.6°C 80% 1.0 mph E1.6 kmh E 2.0 mph3.2 kmh 29.67 in1004.7 mb 0.00 in0.0 mm 0.00 in/hr0.0 mm/hr 0.00 in0.0 mm
05:45 PM 39.8°F4.3°C 34.8°F1.6°C 82% 1.0 mph E1.6 kmh E 2.0 mph3.2 kmh 29.66 in1004.4 mb 0.00 in0.0 mm 0.00 in/hr0.0 mm/hr 0.00 in0.0 mm
06:01 PM 38.8°F3.8°C 34.1°F1.2°C 83% 1.0 mph E1.6 kmh E 2.0 mph3.2 kmh 29.66 in1004.4 mb 0.00 in0.0 mm 0.00 in/hr0.0 mm/hr 0.00 in0.0 mm
06:15 PM 38.3°F3.5°C 34.2°F1.2°C 85% Calm Calm 2.0 mph3.2 kmh 29.66 in1004.4 mb 0.00 in0.0 mm 0.00 in/hr0.0 mm/hr 0.00 in0.0 mm
06:30 PM 37.6°F3.1°C 32.9°F0.5°C 83% 1.0 mph E1.6 kmh E 1.0 mph1.6 kmh 29.65 in1004.1 mb 0.00 in0.0 mm 0.00 in/hr0.0 mm/hr 0.00 in0.0 mm
06:45 PM 37.0°F2.8°C 33.8°F1.0°C 88% 2.0 mph ESE3.2 kmh ESE 4.0 mph6.4 kmh 29.65 in1004.1 mb 0.00 in0.0 mm 0.00 in/hr0.0 mm/hr 0.00 in0.0 mm
07:01 PM 37.9°F3.3°C 34.4°F1.3°C 87% 3.0 mph E4.8 kmh E 7.0 mph11.3 kmh 29.65 in1004.1 mb 0.00 in0.0 mm 0.00 in/hr0.0 mm/hr 0.00 in0.0 mm
07:15 PM 37.7°F3.2°C 35.0°F1.7°C 90% 6.0 mph E9.7 kmh E 8.0 mph12.9 kmh 29.65 in1004.1 mb 0.00 in0.0 mm 0.00 in/hr0.0 mm/hr 0.00 in0.0 mm
07:30 PM 36.3°F2.4°C 34.2°F1.2°C 92% 5.0 mph E8.0 kmh E 8.0 mph12.9 kmh 29.65 in1004.1 mb 0.00 in0.0 mm 0.00 in/hr0.0 mm/hr 0.00 in0.0 mm
07:45 PM 36.2°F2.3°C 34.1°F1.2°C 92% 9.0 mph ESE14.5 kmh ESE 11.0 mph17.7 kmh 29.65 in1004.1 mb 0.00 in0.0 mm 0.00 in/hr0.0 mm/hr 0.00 in0.0 mm
08:01 PM 36.1°F2.3°C 34.0°F1.1°C 92% 9.0 mph ESE14.5 kmh ESE 12.0 mph19.3 kmh 29.65 in1004.1 mb 0.00 in0.0 mm 0.00 in/hr0.0 mm/hr 0.00 in0.0 mm
08:15 PM 36.0°F2.2°C 34.2°F1.2°C 93% 5.0 mph E8.0 kmh E 8.0 mph12.9 kmh 29.65 in1004.1 mb 0.00 in0.0 mm 0.00 in/hr0.0 mm/hr 0.00 in0.0 mm
08:30 PM 36.1°F2.3°C 34.3°F1.3°C 93% 7.0 mph E11.3 kmh E 7.0 mph11.3 kmh 29.65 in1004.1 mb 0.00 in0.0 mm 0.00 in/hr0.0 mm/hr 0.00 in0.0 mm
08:45 PM 36.1°F2.3°C 34.0°F1.1°C 92% 6.0 mph E9.7 kmh E 8.0 mph12.9 kmh 29.64 in1003.7 mb 0.00 in0.0 mm 0.00 in/hr0.0 mm/hr 0.00 in0.0 mm
09:01 PM 36.1°F2.3°C 34.3°F1.3°C 93% 6.0 mph E9.7 kmh E 6.0 mph9.7 kmh 29.64 in1003.7 mb 0.00 in0.0 mm 0.00 in/hr0.0 mm/hr 0.00 in0.0 mm
09:15 PM 36.2°F2.3°C 34.4°F1.3°C 93% 6.0 mph E9.7 kmh E 6.0 mph9.7 kmh 29.63 in1003.4 mb 0.00 in0.0 mm 0.00 in/hr0.0 mm/hr 0.00 in0.0 mm
09:30 PM 36.9°F2.7°C 34.8°F1.6°C 92% 1.0 mph E1.6 kmh E 7.0 mph11.3 kmh 29.63 in1003.4 mb 0.00 in0.0 mm 0.00 in/hr0.0 mm/hr 0.00 in0.0 mm
09:45 PM 37.6°F3.1°C 35.2°F1.8°C 91% 1.0 mph E1.6 kmh E 3.0 mph4.8 kmh 29.63 in1003.4 mb 0.00 in0.0 mm 0.00 in/hr0.0 mm/hr 0.00 in0.0 mm
10:01 PM 38.2°F3.4°C 35.5°F1.9°C 90% 1.0 mph E1.6 kmh E 5.0 mph8.0 kmh 29.63 in1003.4 mb 0.00 in0.0 mm 0.00 in/hr0.0 mm/hr 0.00 in0.0 mm
10:15 PM 38.4°F3.6°C 35.5°F1.9°C 89% 1.0 mph E1.6 kmh E 5.0 mph8.0 kmh 29.63 in1003.4 mb 0.00 in0.0 mm 0.00 in/hr0.0 mm/hr 0.00 in0.0 mm
10:31 PM 38.3°F3.5°C 35.6°F2.0°C 90% 5.0 mph E8.0 kmh E 5.0 mph8.0 kmh 29.62 in1003.0 mb 0.00 in0.0 mm 0.00 in/hr0.0 mm/hr 0.00 in0.0 mm
10:45 PM 38.3°F3.5°C 35.6°F2.0°C 90% 2.0 mph E3.2 kmh E 3.0 mph4.8 kmh 29.62 in1003.0 mb 0.00 in0.0 mm 0.00 in/hr0.0 mm/hr 0.00 in0.0 mm
11:01 PM 38.1°F3.4°C 35.4°F1.9°C 90% 1.0 mph NE1.6 kmh NE 2.0 mph3.2 kmh 29.62 in1003.0 mb 0.00 in0.0 mm 0.00 in/hr0.0 mm/hr 0.00 in0.0 mm
11:15 PM 38.1°F3.4°C 35.4°F1.9°C 90% Calm Calm 2.0 mph3.2 kmh 29.61 in1002.7 mb 0.00 in0.0 mm 0.00 in/hr0.0 mm/hr 0.00 in0.0 mm
11:30 PM 37.8°F3.2°C 35.1°F1.7°C 90% 1.0 mph NE1.6 kmh NE 2.0 mph3.2 kmh 29.61 in1002.7 mb 0.00 in0.0 mm 0.00 in/hr0.0 mm/hr 0.00 in0.0 mm
11:45 PM 37.4°F3.0°C 34.7°F1.5°C 90% 1.0 mph NE1.6 kmh NE 2.0 mph3.2 kmh 29.60 in1002.4 mb 0.00 in0.0 mm 0.00 in/hr0.0 mm/hr 0.00 in0.0 mm